sensor_id;sensor_type;location;lat;lon;timestamp;temperature;humidity
35746;DHT22;21870;42.812;74.628;2023-03-01T00:01:30;7.00;92.90
35746;DHT22;21870;42.812;74.628;2023-03-01T00:03:58;6.80;94.20
35746;DHT22;21870;42.812;74.628;2023-03-01T00:06:25;6.70;95.10
35746;DHT22;21870;42.812;74.628;2023-03-01T00:08:51;6.50;96.40
35746;DHT22;21870;42.812;74.628;2023-03-01T00:11:23;6.50;94.90
35746;DHT22;21870;42.812;74.628;2023-03-01T00:13:52;6.40;94.10
35746;DHT22;21870;42.812;74.628;2023-03-01T00:16:25;6.10;94.30
35746;DHT22;21870;42.812;74.628;2023-03-01T00:18:51;6.10;94.10
35746;DHT22;21870;42.812;74.628;2023-03-01T00:21:18;6.00;93.20
35746;DHT22;21870;42.812;74.628;2023-03-01T00:23:45;6.20;92.40
35746;DHT22;21870;42.812;74.628;2023-03-01T00:26:14;6.30;92.80
35746;DHT22;21870;42.812;74.628;2023-03-01T00:28:41;6.40;93.10
35746;DHT22;21870;42.812;74.628;2023-03-01T00:31:09;6.40;92.50
35746;DHT22;21870;42.812;74.628;2023-03-01T00:33:36;6.40;92.90
35746;DHT22;21870;42.812;74.628;2023-03-01T00:36:02;6.30;93.90
35746;DHT22;21870;42.812;74.628;2023-03-01T00:38:28;6.30;93.10
35746;DHT22;21870;42.812;74.628;2023-03-01T00:40:55;6.30;92.20
35746;DHT22;21870;42.812;74.628;2023-03-01T00:43:21;6.40;91.70
35746;DHT22;21870;42.812;74.628;2023-03-01T00:45:47;6.50;92.60
35746;DHT22;21870;42.812;74.628;2023-03-01T00:48:13;6.50;93.50
35746;DHT22;21870;42.812;74.628;2023-03-01T00:50:39;6.30;94.20
35746;DHT22;21870;42.812;74.628;2023-03-01T00:53:05;6.20;93.70
35746;DHT22;21870;42.812;74.628;2023-03-01T00:55:31;6.10;93.70
35746;DHT22;21870;42.812;74.628;2023-03-01T00:57:57;6.30;93.60
35746;DHT22;21870;42.812;74.628;2023-03-01T01:00:26;6.30;93.20
35746;DHT22;21870;42.812;74.628;2023-03-01T01:02:53;6.20;93.90
35746;DHT22;21870;42.812;74.628;2023-03-01T01:05:19;6.30;93.90
35746;DHT22;21870;42.812;74.628;2023-03-01T01:07:47;6.30;93.20
35746;DHT22;21870;42.812;74.628;2023-03-01T01:10:13;6.30;92.50
35746;DHT22;21870;42.812;74.628;2023-03-01T01:12:46;6.30;92.40
35746;DHT22;21870;42.812;74.628;2023-03-01T01:15:12;6.40;90.60
35746;DHT22;21870;42.812;74.628;2023-03-01T01:17:40;6.50;90.90
35746;DHT22;21870;42.812;74.628;2023-03-01T01:20:06;6.50;92.60
35746;DHT22;21870;42.812;74.628;2023-03-01T01:22:33;6.60;90.90
35746;DHT22;21870;42.812;74.628;2023-03-01T01:24:59;6.80;90.10
35746;DHT22;21870;42.812;74.628;2023-03-01T01:27:25;6.80;92.00
35746;DHT22;21870;42.812;74.628;2023-03-01T01:29:53;6.90;90.70
35746;DHT22;21870;42.812;74.628;2023-03-01T01:32:19;6.90;90.40
35746;DHT22;21870;42.812;74.628;2023-03-01T01:34:45;7.00;89.80
35746;DHT22;21870;42.812;74.628;2023-03-01T01:37:12;7.10;90.20
35746;DHT22;21870;42.812;74.628;2023-03-01T01:39:40;7.00;90.70
35746;DHT22;21870;42.812;74.628;2023-03-01T01:42:16;7.00;88.20
35746;DHT22;21870;42.812;74.628;2023-03-01T01:44:45;7.30;83.50
35746;DHT22;21870;42.812;74.628;2023-03-01T01:47:16;7.20;85.80
35746;DHT22;21870;42.812;74.628;2023-03-01T01:49:50;7.40;82.80
35746;DHT22;21870;42.812;74.628;2023-03-01T01:52:27;7.60;82.40
35746;DHT22;21870;42.812;74.628;2023-03-01T01:57:37;7.70;84.50
35746;DHT22;21870;42.812;74.628;2023-03-01T02:00:17;7.80;83.20
35746;DHT22;21870;42.812;74.628;2023-03-01T02:02:45;7.90;84.10
35746;DHT22;21870;42.812;74.628;2023-03-01T02:07:56;7.70;90.40
35746;DHT22;21870;42.812;74.628;2023-03-01T02:10:23;7.70;88.50
35746;DHT22;21870;42.812;74.628;2023-03-01T02:12:50;7.70;85.60
35746;DHT22;21870;42.812;74.628;2023-03-01T02:15:17;7.90;84.20
35746;DHT22;21870;42.812;74.628;2023-03-01T02:17:43;8.20;79.50
35746;DHT22;21870;42.812;74.628;2023-03-01T02:20:58;8.50;77.80
35746;DHT22;21870;42.812;74.628;2023-03-01T02:23:13;8.80;78.00
35746;DHT22;21870;42.812;74.628;2023-03-01T02:28:32;9.10;78.60
35746;DHT22;21870;42.812;74.628;2023-03-01T02:30:59;9.30;77.70
35746;DHT22;21870;42.812;74.628;2023-03-01T02:33:45;9.40;79.60
35746;DHT22;21870;42.812;74.628;2023-03-01T02:36:23;9.70;75.40
35746;DHT22;21870;42.812;74.628;2023-03-01T02:38:54;9.70;77.60
35746;DHT22;21870;42.812;74.628;2023-03-01T02:41:22;9.90;75.80
35746;DHT22;21870;42.812;74.628;2023-03-01T02:43:48;9.90;76.30
35746;DHT22;21870;42.812;74.628;2023-03-01T02:46:18;9.90;76.70
35746;DHT22;21870;42.812;74.628;2023-03-01T02:48:50;10.00;77.70
35746;DHT22;21870;42.812;74.628;2023-03-01T02:51:28;10.00;78.20
35746;DHT22;21870;42.812;74.628;2023-03-01T02:54:16;10.30;76.20
35746;DHT22;21870;42.812;74.628;2023-03-01T02:56:44;10.50;76.20
35746;DHT22;21870;42.812;74.628;2023-03-01T02:59:16;10.60;77.20
35746;DHT22;21870;42.812;74.628;2023-03-01T03:01:43;10.80;75.60
35746;DHT22;21870;42.812;74.628;2023-03-01T03:04:14;11.00;74.00
35746;DHT22;21870;42.812;74.628;2023-03-01T03:06:45;11.20;74.00
35746;DHT22;21870;42.812;74.628;2023-03-01T03:09:12;11.30;77.00
35746;DHT22;21870;42.812;74.628;2023-03-01T03:11:39;11.40;75.10
35746;DHT22;21870;42.812;74.628;2023-03-01T03:14:07;11.50;75.00
35746;DHT22;21870;42.812;74.628;2023-03-01T03:16:45;11.80;74.30
35746;DHT22;21870;42.812;74.628;2023-03-01T03:19:11;12.00;73.90
35746;DHT22;21870;42.812;74.628;2023-03-01T03:21:38;12.20;72.00
35746;DHT22;21870;42.812;74.628;2023-03-01T03:24:04;12.40;74.60
35746;DHT22;21870;42.812;74.628;2023-03-01T03:26:31;12.40;73.20
35746;DHT22;21870;42.812;74.628;2023-03-01T03:28:57;12.40;73.00
35746;DHT22;21870;42.812;74.628;2023-03-01T03:31:23;12.60;71.00
35746;DHT22;21870;42.812;74.628;2023-03-01T03:33:49;12.70;72.40
35746;DHT22;21870;42.812;74.628;2023-03-01T03:36:21;12.90;71.50
35746;DHT22;21870;42.812;74.628;2023-03-01T03:38:48;13.10;71.00
35746;DHT22;21870;42.812;74.628;2023-03-01T03:41:14;13.30;70.20
35746;DHT22;21870;42.812;74.628;2023-03-01T03:43:42;13.50;70.80
35746;DHT22;21870;42.812;74.628;2023-03-01T03:46:10;13.70;67.10
35746;DHT22;21870;42.812;74.628;2023-03-01T03:48:44;13.90;66.60
35746;DHT22;21870;42.812;74.628;2023-03-01T03:51:15;14.10;65.80
35746;DHT22;21870;42.812;74.628;2023-03-01T03:53:41;14.30;65.50
35746;DHT22;21870;42.812;74.628;2023-03-01T03:56:08;14.50;64.70
35746;DHT22;21870;42.812;74.628;2023-03-01T03:58:35;14.60;64.30
35746;DHT22;21870;42.812;74.628;2023-03-01T04:01:01;14.70;64.60
35746;DHT22;21870;42.812;74.628;2023-03-01T04:03:28;14.80;64.50
35746;DHT22;21870;42.812;74.628;2023-03-01T04:05:57;14.80;63.80
35746;DHT22;21870;42.812;74.628;2023-03-01T04:08:24;14.90;63.60
35746;DHT22;21870;42.812;74.628;2023-03-01T04:10:52;15.10;66.00
35746;DHT22;21870;42.812;74.628;2023-03-01T04:13:21;15.20;64.20
35746;DHT22;21870;42.812;74.628;2023-03-01T04:15:54;15.40;65.20
35746;DHT22;21870;42.812;74.628;2023-03-01T04:18:22;15.70;64.80
35746;DHT22;21870;42.812;74.628;2023-03-01T04:20:49;15.90;64.70
35746;DHT22;21870;42.812;74.628;2023-03-01T04:23:19;16.10;64.70
35746;DHT22;21870;42.812;74.628;2023-03-01T04:25:53;16.30;63.20
35746;DHT22;21870;42.812;74.628;2023-03-01T04:28:34;16.20;62.40
35746;DHT22;21870;42.812;74.628;2023-03-01T04:31:07;16.30;63.80
35746;DHT22;21870;42.812;74.628;2023-03-01T04:33:40;16.30;62.80
35746;DHT22;21870;42.812;74.628;2023-03-01T04:36:07;16.40;62.50
35746;DHT22;21870;42.812;74.628;2023-03-01T04:38:35;16.40;62.90
35746;DHT22;21870;42.812;74.628;2023-03-01T04:41:07;16.40;62.60
35746;DHT22;21870;42.812;74.628;2023-03-01T04:43:33;16.70;62.70
35746;DHT22;21870;42.812;74.628;2023-03-01T04:46:01;17.00;62.70
35746;DHT22;21870;42.812;74.628;2023-03-01T04:48:29;17.30;62.90
35746;DHT22;21870;42.812;74.628;2023-03-01T04:50:55;17.40;61.40
35746;DHT22;21870;42.812;74.628;2023-03-01T04:53:21;17.60;60.50
35746;DHT22;21870;42.812;74.628;2023-03-01T04:55:47;17.70;60.60
35746;DHT22;21870;42.812;74.628;2023-03-01T04:58:13;17.80;60.50
35746;DHT22;21870;42.812;74.628;2023-03-01T05:00:39;17.90;61.30
35746;DHT22;21870;42.812;74.628;2023-03-01T05:03:05;18.10;61.30
35746;DHT22;21870;42.812;74.628;2023-03-01T05:05:33;18.10;62.40
35746;DHT22;21870;42.812;74.628;2023-03-01T05:08:03;18.20;63.30
35746;DHT22;21870;42.812;74.628;2023-03-01T05:10:31;18.40;63.00
35746;DHT22;21870;42.812;74.628;2023-03-01T05:12:58;18.60;62.40
35746;DHT22;21870;42.812;74.628;2023-03-01T05:15:26;18.70;62.70
35746;DHT22;21870;42.812;74.628;2023-03-01T05:17:55;18.70;62.60
35746;DHT22;21870;42.812;74.628;2023-03-01T05:20:21;19.00;64.60
35746;DHT22;21870;42.812;74.628;2023-03-01T05:22:51;19.30;64.70
35746;DHT22;21870;42.812;74.628;2023-03-01T05:25:18;19.50;62.10
35746;DHT22;21870;42.812;74.628;2023-03-01T05:27:44;19.30;62.00
35746;DHT22;21870;42.812;74.628;2023-03-01T05:30:11;19.50;61.90
35746;DHT22;21870;42.812;74.628;2023-03-01T05:32:45;19.80;62.40
35746;DHT22;21870;42.812;74.628;2023-03-01T05:35:13;20.00;63.30
35746;DHT22;21870;42.812;74.628;2023-03-01T05:37:41;20.10;62.50
35746;DHT22;21870;42.812;74.628;2023-03-01T05:40:09;20.00;62.90
35746;DHT22;21870;42.812;74.628;2023-03-01T05:43:01;19.90;62.20
35746;DHT22;21870;42.812;74.628;2023-03-01T05:45:31;19.70;63.60
35746;DHT22;21870;42.812;74.628;2023-03-01T05:48:00;19.80;64.60
35746;DHT22;21870;42.812;74.628;2023-03-01T05:50:29;19.90;64.50
35746;DHT22;21870;42.812;74.628;2023-03-01T05:55:29;20.00;63.40
35746;DHT22;21870;42.812;74.628;2023-03-01T05:58:03;20.10;63.40
35746;DHT22;21870;42.812;74.628;2023-03-01T06:00:30;20.20;63.20
35746;DHT22;21870;42.812;74.628;2023-03-01T06:02:57;20.10;63.20
35746;DHT22;21870;42.812;74.628;2023-03-01T06:05:24;20.10;63.70
35746;DHT22;21870;42.812;74.628;2023-03-01T06:07:50;20.20;63.80
35746;DHT22;21870;42.812;74.628;2023-03-01T06:10:18;20.30;64.00
35746;DHT22;21870;42.812;74.628;2023-03-01T06:12:45;20.00;64.20
35746;DHT22;21870;42.812;74.628;2023-03-01T06:15:13;20.30;63.60
35746;DHT22;21870;42.812;74.628;2023-03-01T06:17:41;20.50;63.00
35746;DHT22;21870;42.812;74.628;2023-03-01T06:20:22;20.70;63.20
35746;DHT22;21870;42.812;74.628;2023-03-01T06:22:48;20.90;62.40
35746;DHT22;21870;42.812;74.628;2023-03-01T06:25:18;20.90;61.90
35746;DHT22;21870;42.812;74.628;2023-03-01T06:27:44;21.20;61.80
35746;DHT22;21870;42.812;74.628;2023-03-01T06:30:12;21.30;61.10
35746;DHT22;21870;42.812;74.628;2023-03-01T06:32:40;21.60;59.90
35746;DHT22;21870;42.812;74.628;2023-03-01T06:35:14;21.80;58.60
35746;DHT22;21870;42.812;74.628;2023-03-01T06:37:43;22.00;57.80
35746;DHT22;21870;42.812;74.628;2023-03-01T06:40:10;21.90;57.20
35746;DHT22;21870;42.812;74.628;2023-03-01T06:42:38;22.10;56.90
35746;DHT22;21870;42.812;74.628;2023-03-01T06:45:06;22.10;60.50
35746;DHT22;21870;42.812;74.628;2023-03-01T06:47:33;22.30;57.70
35746;DHT22;21870;42.812;74.628;2023-03-01T06:50:00;22.30;57.20
35746;DHT22;21870;42.812;74.628;2023-03-01T06:52:27;22.50;57.50
35746;DHT22;21870;42.812;74.628;2023-03-01T06:54:53;22.70;57.00
35746;DHT22;21870;42.812;74.628;2023-03-01T06:57:19;22.70;58.00
35746;DHT22;21870;42.812;74.628;2023-03-01T06:59:46;22.90;57.70
35746;DHT22;21870;42.812;74.628;2023-03-01T07:02:14;22.70;56.20
35746;DHT22;21870;42.812;74.628;2023-03-01T07:04:41;22.80;56.20
35746;DHT22;21870;42.812;74.628;2023-03-01T07:07:07;23.20;56.60
35746;DHT22;21870;42.812;74.628;2023-03-01T07:09:34;23.10;54.90
35746;DHT22;21870;42.812;74.628;2023-03-01T07:12:00;23.40;56.60
35746;DHT22;21870;42.812;74.628;2023-03-01T07:14:26;23.40;54.50
35746;DHT22;21870;42.812;74.628;2023-03-01T07:16:53;23.50;52.80
35746;DHT22;21870;42.812;74.628;2023-03-01T07:19:20;23.70;54.60
35746;DHT22;21870;42.812;74.628;2023-03-01T07:21:46;23.70;53.20
35746;DHT22;21870;42.812;74.628;2023-03-01T07:24:12;23.70;53.80
35746;DHT22;21870;42.812;74.628;2023-03-01T07:26:39;23.90;54.80
35746;DHT22;21870;42.812;74.628;2023-03-01T07:29:07;23.90;55.60
35746;DHT22;21870;42.812;74.628;2023-03-01T07:31:33;24.00;55.10
35746;DHT22;21870;42.812;74.628;2023-03-01T07:34:00;23.90;54.90
35746;DHT22;21870;42.812;74.628;2023-03-01T07:36:27;23.80;55.00
35746;DHT22;21870;42.812;74.628;2023-03-01T07:38:53;23.80;55.50
35746;DHT22;21870;42.812;74.628;2023-03-01T07:41:21;23.90;55.50
35746;DHT22;21870;42.812;74.628;2023-03-01T07:43:47;24.00;55.90
35746;DHT22;21870;42.812;74.628;2023-03-01T07:46:13;24.00;56.80
35746;DHT22;21870;42.812;74.628;2023-03-01T07:48:39;23.90;57.10
35746;DHT22;21870;42.812;74.628;2023-03-01T07:51:06;23.90;56.80
35746;DHT22;21870;42.812;74.628;2023-03-01T07:53:33;23.50;56.40
35746;DHT22;21870;42.812;74.628;2023-03-01T07:58:33;23.30;57.90
35746;DHT22;21870;42.812;74.628;2023-03-01T08:01:07;23.40;58.40
35746;DHT22;21870;42.812;74.628;2023-03-01T08:03:34;23.40;57.40
35746;DHT22;21870;42.812;74.628;2023-03-01T08:06:04;23.30;57.70
35746;DHT22;21870;42.812;74.628;2023-03-01T08:08:31;23.20;56.70
35746;DHT22;21870;42.812;74.628;2023-03-01T08:10:58;23.30;57.70
35746;DHT22;21870;42.812;74.628;2023-03-01T08:13:27;23.40;57.40
35746;DHT22;21870;42.812;74.628;2023-03-01T08:15:53;23.20;58.30
35746;DHT22;21870;42.812;74.628;2023-03-01T08:18:20;23.40;57.80
35746;DHT22;21870;42.812;74.628;2023-03-01T08:20:47;23.40;58.90
35746;DHT22;21870;42.812;74.628;2023-03-01T08:23:13;23.50;59.30
35746;DHT22;21870;42.812;74.628;2023-03-01T08:25:39;23.50;59.80
35746;DHT22;21870;42.812;74.628;2023-03-01T08:28:05;23.70;59.50
35746;DHT22;21870;42.812;74.628;2023-03-01T08:30:31;23.40;59.50
35746;DHT22;21870;42.812;74.628;2023-03-01T08:32:58;23.40;60.90
35746;DHT22;21870;42.812;74.628;2023-03-01T08:35:24;23.40;61.10
35746;DHT22;21870;42.812;74.628;2023-03-01T08:37:50;23.60;61.00
35746;DHT22;21870;42.812;74.628;2023-03-01T08:40:16;23.70;60.60
35746;DHT22;21870;42.812;74.628;2023-03-01T08:42:42;23.60;59.90
35746;DHT22;21870;42.812;74.628;2023-03-01T08:45:10;23.50;60.70
35746;DHT22;21870;42.812;74.628;2023-03-01T08:47:37;23.70;60.70
35746;DHT22;21870;42.812;74.628;2023-03-01T08:50:04;23.60;61.20
35746;DHT22;21870;42.812;74.628;2023-03-01T08:52:31;23.60;64.00
35746;DHT22;21870;42.812;74.628;2023-03-01T08:54:57;23.50;64.00
35746;DHT22;21870;42.812;74.628;2023-03-01T08:57:23;23.70;63.90
35746;DHT22;21870;42.812;74.628;2023-03-01T08:59:49;23.60;63.20
35746;DHT22;21870;42.812;74.628;2023-03-01T09:02:17;23.60;64.10
35746;DHT22;21870;42.812;74.628;2023-03-01T09:04:43;23.50;64.70
35746;DHT22;21870;42.812;74.628;2023-03-01T09:07:10;23.50;63.80
35746;DHT22;21870;42.812;74.628;2023-03-01T09:09:37;23.40;63.90
35746;DHT22;21870;42.812;74.628;2023-03-01T09:12:04;23.40;64.40
35746;DHT22;21870;42.812;74.628;2023-03-01T09:14:30;23.40;64.00
35746;DHT22;21870;42.812;74.628;2023-03-01T09:16:56;23.60;63.20
35746;DHT22;21870;42.812;74.628;2023-03-01T09:19:22;23.60;63.20
35746;DHT22;21870;42.812;74.628;2023-03-01T09:21:48;23.50;62.10
35746;DHT22;21870;42.812;74.628;2023-03-01T09:24:23;23.50;61.20
35746;DHT22;21870;42.812;74.628;2023-03-01T09:26:50;23.40;62.50
35746;DHT22;21870;42.812;74.628;2023-03-01T09:29:18;23.40;62.70
35746;DHT22;21870;42.812;74.628;2023-03-01T09:31:47;23.10;61.70
35746;DHT22;21870;42.812;74.628;2023-03-01T09:34:13;23.10;62.50
35746;DHT22;21870;42.812;74.628;2023-03-01T09:36:41;23.20;61.90
35746;DHT22;21870;42.812;74.628;2023-03-01T09:39:08;23.00;62.10
35746;DHT22;21870;42.812;74.628;2023-03-01T09:42:04;23.00;61.70
35746;DHT22;21870;42.812;74.628;2023-03-01T09:47:14;23.00;62.60
35746;DHT22;21870;42.812;74.628;2023-03-01T09:49:43;23.00;62.10
35746;DHT22;21870;42.812;74.628;2023-03-01T09:54:48;22.80;62.60
35746;DHT22;21870;42.812;74.628;2023-03-01T09:57:41;22.90;63.80
35746;DHT22;21870;42.812;74.628;2023-03-01T10:10:44;22.40;63.80
35746;DHT22;21870;42.812;74.628;2023-03-01T10:16:11;22.60;63.50
35746;DHT22;21870;42.812;74.628;2023-03-01T10:18:40;22.60;63.80
35746;DHT22;21870;42.812;74.628;2023-03-01T10:21:16;22.50;63.60
35746;DHT22;21870;42.812;74.628;2023-03-01T10:23:43;22.40;64.10
35746;DHT22;21870;42.812;74.628;2023-03-01T10:31:16;22.30;66.00
35746;DHT22;21870;42.812;74.628;2023-03-01T10:33:44;22.50;66.50
35746;DHT22;21870;42.812;74.628;2023-03-01T10:36:10;22.40;66.90
35746;DHT22;21870;42.812;74.628;2023-03-01T10:38:55;22.20;68.20
35746;DHT22;21870;42.812;74.628;2023-03-01T10:41:24;22.10;67.50
35746;DHT22;21870;42.812;74.628;2023-03-01T10:43:54;22.00;68.70
35746;DHT22;21870;42.812;74.628;2023-03-01T10:46:30;21.70;68.80
35746;DHT22;21870;42.812;74.628;2023-03-01T10:51:32;22.00;69.40
35746;DHT22;21870;42.812;74.628;2023-03-01T10:54:01;22.10;70.10
35746;DHT22;21870;42.812;74.628;2023-03-01T10:56:27;22.00;70.40
35746;DHT22;21870;42.812;74.628;2023-03-01T10:59:04;21.90;70.40
35746;DHT22;21870;42.812;74.628;2023-03-01T11:01:33;21.70;70.60
35746;DHT22;21870;42.812;74.628;2023-03-01T11:04:13;21.60;71.50
35746;DHT22;21870;42.812;74.628;2023-03-01T11:06:41;21.60;72.10
35746;DHT22;21870;42.812;74.628;2023-03-01T11:11:41;21.50;71.40
35746;DHT22;21870;42.812;74.628;2023-03-01T11:16:49;21.50;72.10
35746;DHT22;21870;42.812;74.628;2023-03-01T11:19:23;21.30;72.40
35746;DHT22;21870;42.812;74.628;2023-03-01T11:24:54;21.10;72.60
35746;DHT22;21870;42.812;74.628;2023-03-01T11:27:36;21.00;72.00
35746;DHT22;21870;42.812;74.628;2023-03-01T11:35:41;20.90;73.20
35746;DHT22;21870;42.812;74.628;2023-03-01T11:40:57;20.80;73.20
35746;DHT22;21870;42.812;74.628;2023-03-01T11:49:12;20.60;72.90
35746;DHT22;21870;42.812;74.628;2023-03-01T11:57:37;20.20;74.20
35746;DHT22;21870;42.812;74.628;2023-03-01T12:05:18;19.90;74.00
35746;DHT22;21870;42.812;74.628;2023-03-01T12:11:03;19.40;73.20
35746;DHT22;21870;42.812;74.628;2023-03-01T12:27:11;18.30;74.30
35746;DHT22;21870;42.812;74.628;2023-03-01T12:33:02;17.90;74.90
35746;DHT22;21870;42.812;74.628;2023-03-01T12:41:01;17.10;80.00
35746;DHT22;21870;42.812;74.628;2023-03-01T12:43:36;16.80;81.20
35746;DHT22;21870;42.812;74.628;2023-03-01T12:46:10;16.50;82.00
35746;DHT22;21870;42.812;74.628;2023-03-01T12:51:21;16.10;83.40
35746;DHT22;21870;42.812;74.628;2023-03-01T12:53:51;16.00;83.20
35746;DHT22;21870;42.812;74.628;2023-03-01T12:56:24;15.80;83.70
35746;DHT22;21870;42.812;74.628;2023-03-01T12:59:17;15.60;84.20
35746;DHT22;21870;42.812;74.628;2023-03-01T13:02:04;15.50;84.00
35746;DHT22;21870;42.812;74.628;2023-03-01T13:17:53;14.60;86.90
35746;DHT22;21870;42.812;74.628;2023-03-01T13:20:24;14.40;87.80
35746;DHT22;21870;42.812;74.628;2023-03-01T13:23:05;14.30;88.20
35746;DHT22;21870;42.812;74.628;2023-03-01T13:25:32;14.20;89.30
35746;DHT22;21870;42.812;74.628;2023-03-01T13:31:06;13.90;90.30
35746;DHT22;21870;42.812;74.628;2023-03-01T13:33:33;13.80;90.80
35746;DHT22;21870;42.812;74.628;2023-03-01T13:36:02;13.70;91.20
35746;DHT22;21870;42.812;74.628;2023-03-01T13:46:56;13.20;93.70
35746;DHT22;21870;42.812;74.628;2023-03-01T13:49:27;13.10;94.60
35746;DHT22;21870;42.812;74.628;2023-03-01T13:51:53;13.00;95.70
35746;DHT22;21870;42.812;74.628;2023-03-01T13:54:31;13.00;96.60
35746;DHT22;21870;42.812;74.628;2023-03-01T13:56:59;12.90;97.60
35746;DHT22;21870;42.812;74.628;2023-03-01T13:59:26;12.80;98.60
35746;DHT22;21870;42.812;74.628;2023-03-01T14:01:58;12.70;99.80
35746;DHT22;21870;42.812;74.628;2023-03-01T14:04:30;12.60;99.90
35746;DHT22;21870;42.812;74.628;2023-03-01T14:07:21;12.60;99.90
35746;DHT22;21870;42.812;74.628;2023-03-01T14:10:02;12.50;99.90
35746;DHT22;21870;42.812;74.628;2023-03-01T14:12:44;12.50;99.90
35746;DHT22;21870;42.812;74.628;2023-03-01T14:15:33;12.20;99.90
35746;DHT22;21870;42.812;74.628;2023-03-01T14:20:38;11.80;99.90
35746;DHT22;21870;42.812;74.628;2023-03-01T14:23:11;11.70;99.90
35746;DHT22;21870;42.812;74.628;2023-03-01T14:25:39;11.10;99.90
35746;DHT22;21870;42.812;74.628;2023-03-01T14:28:29;10.80;99.90
35746;DHT22;21870;42.812;74.628;2023-03-01T14:30:58;10.70;99.90
35746;DHT22;21870;42.812;74.628;2023-03-01T14:33:33;10.60;99.90
35746;DHT22;21870;42.812;74.628;2023-03-01T14:36:11;10.90;99.90
35746;DHT22;21870;42.812;74.628;2023-03-01T14:38:41;10.90;99.90
35746;DHT22;21870;42.812;74.628;2023-03-01T14:41:10;11.00;99.90
35746;DHT22;21870;42.812;74.628;2023-03-01T14:43:41;11.00;99.90
35746;DHT22;21870;42.812;74.628;2023-03-01T14:46:29;10.80;99.90
35746;DHT22;21870;42.812;74.628;2023-03-01T14:49:09;10.80;99.90
35746;DHT22;21870;42.812;74.628;2023-03-01T14:51:42;10.70;99.90
35746;DHT22;21870;42.812;74.628;2023-03-01T14:54:27;10.70;99.90
35746;DHT22;21870;42.812;74.628;2023-03-01T14:56:58;10.50;99.90
35746;DHT22;21870;42.812;74.628;2023-03-01T14:59:26;10.60;99.90
35746;DHT22;21870;42.812;74.628;2023-03-01T15:01:54;10.70;99.90
35746;DHT22;21870;42.812;74.628;2023-03-01T15:04:21;10.40;99.90
35746;DHT22;21870;42.812;74.628;2023-03-01T15:06:51;10.40;99.90
35746;DHT22;21870;42.812;74.628;2023-03-01T15:09:18;10.30;99.90
35746;DHT22;21870;42.812;74.628;2023-03-01T15:11:44;10.20;99.90
35746;DHT22;21870;42.812;74.628;2023-03-01T15:14:40;10.20;99.90
35746;DHT22;21870;42.812;74.628;2023-03-01T15:17:33;10.00;99.90
35746;DHT22;21870;42.812;74.628;2023-03-01T15:20:06;10.00;99.90
35746;DHT22;21870;42.812;74.628;2023-03-01T15:22:32;9.80;99.90
35746;DHT22;21870;42.812;74.628;2023-03-01T15:24:59;9.70;99.90
35746;DHT22;21870;42.812;74.628;2023-03-01T15:27:26;9.80;99.90
35746;DHT22;21870;42.812;74.628;2023-03-01T15:29:58;9.90;99.90
35746;DHT22;21870;42.812;74.628;2023-03-01T15:34:51;10.00;99.90
35746;DHT22;21870;42.812;74.628;2023-03-01T15:37:46;9.90;99.90
35746;DHT22;21870;42.812;74.628;2023-03-01T15:40:26;9.90;99.90
35746;DHT22;21870;42.812;74.628;2023-03-01T15:43:04;10.00;99.90
35746;DHT22;21870;42.812;74.628;2023-03-01T15:45:32;9.90;99.90
35746;DHT22;21870;42.812;74.628;2023-03-01T15:48:17;9.80;99.90
35746;DHT22;21870;42.812;74.628;2023-03-01T15:50:44;9.70;99.90
35746;DHT22;21870;42.812;74.628;2023-03-01T15:53:19;9.60;99.90
35746;DHT22;21870;42.812;74.628;2023-03-01T15:55:45;9.80;99.90
35746;DHT22;21870;42.812;74.628;2023-03-01T15:58:21;9.70;99.90
35746;DHT22;21870;42.812;74.628;2023-03-01T16:00:48;9.50;99.90
35746;DHT22;21870;42.812;74.628;2023-03-01T16:03:17;9.50;99.90
35746;DHT22;21870;42.812;74.628;2023-03-01T16:05:50;9.50;99.90
35746;DHT22;21870;42.812;74.628;2023-03-01T16:08:17;9.50;99.90
35746;DHT22;21870;42.812;74.628;2023-03-01T16:10:45;9.60;99.90
35746;DHT22;21870;42.812;74.628;2023-03-01T16:13:12;9.70;99.90
35746;DHT22;21870;42.812;74.628;2023-03-01T16:15:39;9.80;99.90
35746;DHT22;21870;42.812;74.628;2023-03-01T16:18:06;9.80;99.90
35746;DHT22;21870;42.812;74.628;2023-03-01T16:20:34;9.70;99.90
35746;DHT22;21870;42.812;74.628;2023-03-01T16:23:02;9.50;99.90
35746;DHT22;21870;42.812;74.628;2023-03-01T16:25:29;9.40;99.90
35746;DHT22;21870;42.812;74.628;2023-03-01T16:27:56;9.50;99.90
35746;DHT22;21870;42.812;74.628;2023-03-01T16:30:24;9.50;99.90
35746;DHT22;21870;42.812;74.628;2023-03-01T16:32:50;9.50;99.90
35746;DHT22;21870;42.812;74.628;2023-03-01T16:35:18;9.50;99.90
35746;DHT22;21870;42.812;74.628;2023-03-01T16:37:46;9.50;99.90
35746;DHT22;21870;42.812;74.628;2023-03-01T16:40:24;9.50;99.90
35746;DHT22;21870;42.812;74.628;2023-03-01T16:42:51;9.50;99.90
35746;DHT22;21870;42.812;74.628;2023-03-01T16:45:19;9.50;99.90
35746;DHT22;21870;42.812;74.628;2023-03-01T16:47:45;9.40;99.90
35746;DHT22;21870;42.812;74.628;2023-03-01T16:50:11;9.40;99.90
35746;DHT22;21870;42.812;74.628;2023-03-01T16:52:38;9.40;99.90
35746;DHT22;21870;42.812;74.628;2023-03-01T16:55:05;9.40;99.90
35746;DHT22;21870;42.812;74.628;2023-03-01T16:57:34;9.50;99.90
35746;DHT22;21870;42.812;74.628;2023-03-01T17:00:00;9.50;99.90
35746;DHT22;21870;42.812;74.628;2023-03-01T17:02:27;9.50;99.90
35746;DHT22;21870;42.812;74.628;2023-03-01T17:04:54;9.50;99.90
35746;DHT22;21870;42.812;74.628;2023-03-01T17:07:21;9.50;99.90
35746;DHT22;21870;42.812;74.628;2023-03-01T17:09:48;9.40;99.90
35746;DHT22;21870;42.812;74.628;2023-03-01T17:12:15;9.30;99.90
35746;DHT22;21870;42.812;74.628;2023-03-01T17:14:42;9.30;99.90
35746;DHT22;21870;42.812;74.628;2023-03-01T17:17:09;9.20;99.90
35746;DHT22;21870;42.812;74.628;2023-03-01T17:19:35;9.20;99.90
35746;DHT22;21870;42.812;74.628;2023-03-01T17:22:05;9.10;99.90
35746;DHT22;21870;42.812;74.628;2023-03-01T17:24:33;9.00;99.90
35746;DHT22;21870;42.812;74.628;2023-03-01T17:26:59;9.00;99.90
35746;DHT22;21870;42.812;74.628;2023-03-01T17:29:25;9.10;99.90
35746;DHT22;21870;42.812;74.628;2023-03-01T17:31:51;9.20;99.90
35746;DHT22;21870;42.812;74.628;2023-03-01T17:34:20;9.30;99.90
35746;DHT22;21870;42.812;74.628;2023-03-01T17:36:46;9.50;99.90
35746;DHT22;21870;42.812;74.628;2023-03-01T17:39:15;9.50;99.90
35746;DHT22;21870;42.812;74.628;2023-03-01T17:41:41;9.60;99.90
35746;DHT22;21870;42.812;74.628;2023-03-01T17:44:08;9.60;99.90
35746;DHT22;21870;42.812;74.628;2023-03-01T17:46:34;9.60;99.90